createdAt,value
2022-11-09T00:01:28.436Z,3.40
2022-11-09T00:04:15.374Z,3.47
2022-11-09T00:07:02.396Z,3.80
2022-11-09T00:09:49.576Z,4.60
2022-11-09T00:12:36.625Z,4.10
2022-11-09T00:15:23.610Z,4.27
2022-11-09T00:18:10.539Z,4.70
2022-11-09T00:20:57.820Z,4.37
2022-11-09T00:23:45.301Z,4.20
2022-11-09T00:26:32.476Z,4.17
2022-11-09T00:29:19.543Z,4.40
2022-11-09T00:32:09.005Z,4.33
2022-11-09T00:34:56.486Z,3.80
2022-11-09T00:37:43.578Z,3.00
2022-11-09T00:40:30.601Z,3.40
2022-11-09T00:43:18.022Z,3.20
2022-11-09T00:46:07.553Z,3.43
2022-11-09T00:48:56.020Z,3.10
2022-11-09T00:51:43.204Z,4.03
2022-11-09T00:54:30.177Z,3.50
2022-11-09T00:57:17.187Z,3.20
2022-11-09T01:00:06.532Z,3.30
2022-11-09T01:02:53.489Z,3.83
2022-11-09T01:05:40.542Z,3.07
2022-11-09T01:08:27.568Z,3.27
2022-11-09T01:11:15.938Z,3.30
2022-11-09T01:14:03.825Z,3.37
2022-11-09T01:16:51.527Z,3.50
2022-11-09T01:19:38.500Z,3.40
2022-11-09T01:22:25.469Z,3.53
2022-11-09T01:25:15.477Z,3.00
2022-11-09T01:28:03.232Z,3.33
2022-11-09T01:30:50.425Z,3.50
2022-11-09T01:33:37.484Z,3.23
2022-11-09T01:36:25.176Z,3.20
2022-11-09T01:39:12.272Z,3.13
2022-11-09T01:41:59.259Z,3.30
2022-11-09T01:44:46.224Z,3.50
2022-11-09T01:47:33.468Z,2.93
2022-11-09T01:50:31.332Z,3.00
2022-11-09T01:53:21.601Z,2.90
2022-11-09T01:56:13.495Z,3.13
2022-11-09T01:59:13.861Z,2.87
2022-11-09T02:02:01.022Z,2.90
2022-11-09T02:04:55.251Z,3.10
2022-11-09T02:07:43.917Z,3.03
2022-11-09T02:11:03.152Z,3.03
2022-11-09T02:13:59.815Z,3.40
2022-11-09T02:16:47.646Z,3.00
2022-11-09T02:19:35.165Z,2.63
2022-11-09T02:22:23.585Z,2.80
2022-11-09T02:25:14.084Z,3.07
2022-11-09T02:28:01.394Z,2.80
2022-11-09T02:30:52.961Z,3.30
2022-11-09T02:33:44.317Z,3.53
2022-11-09T02:36:31.634Z,3.30
2022-11-09T02:39:23.231Z,3.40
2022-11-09T02:42:21.020Z,2.90
2022-11-09T02:45:10.574Z,3.17
2022-11-09T02:47:59.516Z,3.23
2022-11-09T02:50:47.785Z,3.30
2022-11-09T02:53:34.827Z,3.03
2022-11-09T02:56:22.493Z,2.83
2022-11-09T02:59:09.567Z,3.00
2022-11-09T03:01:57.354Z,3.00
2022-11-09T03:04:46.172Z,3.23
2022-11-09T03:07:33.875Z,3.13
2022-11-09T03:10:21.129Z,3.03
2022-11-09T03:13:08.124Z,3.00
2022-11-09T03:15:56.024Z,2.93
2022-11-09T03:18:43.025Z,2.67
2022-11-09T03:21:30.518Z,2.67
2022-11-09T03:24:17.461Z,3.13
2022-11-09T03:27:04.417Z,2.70
2022-11-09T03:29:51.486Z,2.30
2022-11-09T03:32:39.357Z,2.73
2022-11-09T03:35:27.432Z,2.67
2022-11-09T03:38:14.609Z,2.47
2022-11-09T03:41:02.792Z,2.53
2022-11-09T03:43:50.322Z,2.67
2022-11-09T03:46:37.354Z,2.50
2022-11-09T03:49:24.296Z,2.60
2022-11-09T03:52:11.268Z,2.80
2022-11-09T03:54:58.235Z,2.97
2022-11-09T03:57:46.294Z,2.37
2022-11-09T04:00:34.018Z,2.70
2022-11-09T04:03:21.412Z,2.57
2022-11-09T04:06:08.680Z,2.90
2022-11-09T04:08:55.688Z,2.77
2022-11-09T04:11:42.684Z,2.63
2022-11-09T04:14:29.695Z,2.50
2022-11-09T04:17:16.683Z,3.00
2022-11-09T04:20:05.155Z,2.50
2022-11-09T04:23:00.952Z,2.60
2022-11-09T04:25:47.939Z,2.67
2022-11-09T04:28:38.617Z,2.47
2022-11-09T04:31:28.143Z,2.50
2022-11-09T04:34:16.982Z,2.60
2022-11-09T04:37:04.087Z,2.90
2022-11-09T04:39:51.017Z,2.63
2022-11-09T04:42:38.089Z,3.23
2022-11-09T04:45:25.063Z,2.80
2022-11-09T04:48:12.247Z,2.80
2022-11-09T04:51:05.053Z,3.00
2022-11-09T04:53:52.045Z,3.00
2022-11-09T04:56:39.026Z,2.90
2022-11-09T04:59:25.973Z,3.17
2022-11-09T05:02:12.944Z,3.20
2022-11-09T05:04:59.967Z,2.80
2022-11-09T05:07:47.064Z,2.90
2022-11-09T05:10:34.883Z,3.40
2022-11-09T05:13:22.111Z,3.93
2022-11-09T05:16:09.346Z,3.10
2022-11-09T05:18:56.325Z,3.40
2022-11-09T05:21:43.872Z,3.20
2022-11-09T05:24:31.300Z,3.20
2022-11-09T05:27:19.024Z,3.10
2022-11-09T05:30:07.474Z,2.87
2022-11-09T05:32:54.974Z,2.93
2022-11-09T05:35:42.586Z,2.40
2022-11-09T05:38:30.263Z,2.53
2022-11-09T05:41:17.898Z,2.50
2022-11-09T05:44:05.704Z,2.57
2022-11-09T05:46:53.251Z,2.90
2022-11-09T05:49:40.638Z,2.87
2022-11-09T05:52:28.215Z,3.00
2022-11-09T05:55:15.693Z,2.83
2022-11-09T05:58:03.415Z,2.50
2022-11-09T06:00:50.856Z,2.77
2022-11-09T06:03:38.240Z,2.40
2022-11-09T06:06:25.270Z,2.60
2022-11-09T06:09:12.308Z,2.93
2022-11-09T06:11:59.274Z,2.60
2022-11-09T06:14:46.309Z,2.73
2022-11-09T06:17:33.272Z,2.57
2022-11-09T06:20:20.717Z,2.80
2022-11-09T06:23:08.868Z,2.77
2022-11-09T06:26:01.789Z,2.70
2022-11-09T06:28:48.759Z,2.53
2022-11-09T06:31:36.305Z,2.57
2022-11-09T06:34:23.401Z,2.80
2022-11-09T06:37:10.360Z,2.60
2022-11-09T06:39:57.322Z,2.93
2022-11-09T06:42:44.306Z,3.10
2022-11-09T06:45:31.799Z,2.50
2022-11-09T06:48:19.342Z,3.00
2022-11-09T06:51:07.044Z,2.70
2022-11-09T06:53:54.265Z,2.93
2022-11-09T06:56:41.305Z,2.93
2022-11-09T06:59:28.526Z,3.07
2022-11-09T07:02:20.128Z,3.03
2022-11-09T07:05:07.446Z,3.20
2022-11-09T07:07:54.534Z,3.73
2022-11-09T07:10:41.794Z,3.63
2022-11-09T07:13:29.075Z,3.70
2022-11-09T07:16:19.200Z,3.57
2022-11-09T07:19:06.509Z,3.37
2022-11-09T07:21:54.019Z,3.47
2022-11-09T07:24:41.492Z,3.50
2022-11-09T07:27:28.628Z,3.40
2022-11-09T07:30:15.655Z,3.20
2022-11-09T07:33:10.625Z,3.67
2022-11-09T07:35:58.774Z,3.47
2022-11-09T07:38:45.699Z,4.23
2022-11-09T07:41:34.879Z,3.87
2022-11-09T07:44:22.004Z,4.60
2022-11-09T07:47:14.495Z,4.53
2022-11-09T07:50:05.603Z,4.13
2022-11-09T07:52:52.591Z,4.30
2022-11-09T07:55:40.146Z,4.37
2022-11-09T07:58:28.037Z,3.80
2022-11-09T08:01:14.998Z,4.20
2022-11-09T08:04:02.028Z,3.73
2022-11-09T08:06:52.240Z,3.87
2022-11-09T08:09:39.272Z,3.20
2022-11-09T08:12:26.254Z,3.57
2022-11-09T08:15:13.253Z,3.30
2022-11-09T08:18:02.537Z,2.93
2022-11-09T08:20:50.142Z,2.80
2022-11-09T08:23:37.109Z,3.40
2022-11-09T08:26:24.090Z,3.13
2022-11-09T08:29:13.456Z,2.93
2022-11-09T08:32:00.520Z,3.37
2022-11-09T08:34:48.571Z,3.67
2022-11-09T08:37:37.007Z,3.70
2022-11-09T08:40:25.928Z,3.20
2022-11-09T08:43:13.520Z,3.20
2022-11-09T08:46:00.557Z,3.57
2022-11-09T08:48:47.532Z,3.30
2022-11-09T08:51:34.533Z,3.70
2022-11-09T08:54:21.574Z,3.40
2022-11-09T08:57:09.190Z,3.40
2022-11-09T08:59:56.191Z,3.20
2022-11-09T09:02:43.137Z,3.20
2022-11-09T09:05:30.607Z,3.50
2022-11-09T09:08:21.856Z,3.20
2022-11-09T09:11:09.220Z,3.17
2022-11-09T09:13:56.182Z,3.27
2022-11-09T09:16:43.221Z,3.47
2022-11-09T09:19:30.562Z,3.20
2022-11-09T09:22:17.956Z,3.67
2022-11-09T09:25:05.446Z,4.27
2022-11-09T09:27:52.447Z,4.70
2022-11-09T09:30:40.610Z,4.27
2022-11-09T09:33:28.295Z,3.73
2022-11-09T09:36:20.748Z,3.83
2022-11-09T09:39:07.709Z,4.17
2022-11-09T09:41:58.237Z,3.80
2022-11-09T09:45:00.936Z,4.10
2022-11-09T09:48:17.189Z,4.30
2022-11-09T09:51:17.958Z,3.50
2022-11-09T09:54:21.465Z,3.90
2022-11-09T09:57:18.058Z,4.00
2022-11-09T10:00:15.773Z,3.83
2022-11-09T10:03:03.456Z,3.60
2022-11-09T10:05:50.327Z,3.83
2022-11-09T10:09:01.897Z,3.53
2022-11-09T10:12:13.248Z,4.27
2022-11-09T10:15:15.617Z,4.10
2022-11-09T10:18:09.434Z,3.80
2022-11-09T10:21:48.495Z,3.97
2022-11-09T10:25:12.905Z,3.57
2022-11-09T10:27:59.123Z,4.27
2022-11-09T10:30:46.683Z,3.40
2022-11-09T10:33:34.063Z,3.40
2022-11-09T10:36:31.062Z,3.90
2022-11-09T10:39:20.496Z,3.70
2022-11-09T10:42:26.465Z,3.43
2022-11-09T10:45:41.161Z,3.87
2022-11-09T10:48:47.874Z,3.70
2022-11-09T10:51:53.620Z,3.50
2022-11-09T10:55:30.779Z,3.77
2022-11-09T10:58:46.620Z,3.67
2022-11-09T11:01:52.205Z,3.80
2022-11-09T11:05:06.763Z,3.80
2022-11-09T11:08:25.658Z,3.60
2022-11-09T11:11:37.665Z,3.33
2022-11-09T11:14:44.783Z,3.17
2022-11-09T11:17:59.725Z,3.30
2022-11-09T11:21:32.810Z,3.13
2022-11-09T11:24:46.877Z,3.47
2022-11-09T11:28:02.811Z,3.53
2022-11-09T11:31:17.671Z,3.27
2022-11-09T11:34:53.529Z,3.30
2022-11-09T11:38:20.004Z,3.33
2022-11-09T11:41:44.489Z,3.47
2022-11-09T11:45:40.491Z,3.50
2022-11-09T11:48:50.883Z,3.17
2022-11-09T11:52:25.823Z,3.30
2022-11-09T11:55:55.766Z,3.30
2022-11-09T11:59:33.329Z,3.07
2022-11-09T12:03:14.884Z,3.43
2022-11-09T12:06:49.930Z,3.47
2022-11-09T12:10:23.759Z,3.00
2022-11-09T12:13:55.337Z,3.07
2022-11-09T12:17:11.723Z,2.80
2022-11-09T12:20:22.174Z,2.80
2022-11-09T12:23:40.234Z,3.03
2022-11-09T12:27:10.971Z,3.60
2022-11-09T12:30:21.478Z,3.27
2022-11-09T12:33:42.873Z,3.37
2022-11-09T12:37:03.196Z,2.70
2022-11-09T12:40:30.267Z,3.00
2022-11-09T12:43:57.885Z,3.03
2022-11-09T12:47:10.328Z,2.73
2022-11-09T12:50:23.299Z,2.43
2022-11-09T12:53:32.520Z,2.50
2022-11-09T12:56:51.520Z,2.50
2022-11-09T12:59:59.393Z,2.80
2022-11-09T13:03:07.817Z,2.73
2022-11-09T13:06:13.348Z,2.43
2022-11-09T13:09:24.442Z,2.60
2022-11-09T13:12:34.823Z,2.43
2022-11-09T13:16:31.258Z,1.83
2022-11-09T13:19:39.903Z,2.40
2022-11-09T13:22:45.513Z,2.43
2022-11-09T13:25:53.100Z,2.60
2022-11-09T13:29:49.081Z,2.80
2022-11-09T13:33:05.950Z,2.60
2022-11-09T13:36:11.336Z,2.70
2022-11-09T13:39:31.987Z,2.80
2022-11-09T13:42:37.768Z,2.80
2022-11-09T13:45:52.793Z,2.60
2022-11-09T13:48:58.789Z,2.73
2022-11-09T13:52:04.625Z,2.57
2022-11-09T13:55:22.941Z,2.50
2022-11-09T13:58:36.306Z,2.60
2022-11-09T14:01:54.194Z,2.70
2022-11-09T14:05:01.814Z,2.40
2022-11-09T14:08:24.012Z,2.40
2022-11-09T14:11:48.709Z,2.70
2022-11-09T14:15:25.357Z,2.57
2022-11-09T14:18:54.256Z,2.90
2022-11-09T14:22:00.499Z,3.00
2022-11-09T14:25:26.284Z,2.90
2022-11-09T14:28:34.584Z,3.00
2022-11-09T14:31:45.432Z,3.23
2022-11-09T14:34:51.220Z,3.07
2022-11-09T14:37:59.975Z,3.13
2022-11-09T14:41:17.357Z,2.77
2022-11-09T14:44:27.238Z,2.70
2022-11-09T14:47:37.095Z,2.30
2022-11-09T14:50:42.741Z,2.70
2022-11-09T14:53:49.836Z,2.60
2022-11-09T14:56:55.477Z,2.77
2022-11-09T15:00:01.106Z,2.60
2022-11-09T15:03:29.502Z,2.53
2022-11-09T15:06:35.909Z,3.17
2022-11-09T15:09:48.110Z,2.87
2022-11-09T15:12:58.212Z,2.63
2022-11-09T15:16:05.761Z,2.93
2022-11-09T15:19:27.750Z,2.50
2022-11-09T15:22:48.404Z,2.40
2022-11-09T15:25:56.230Z,2.60
2022-11-09T15:29:02.005Z,3.10
2022-11-09T15:32:10.541Z,3.27
2022-11-09T15:35:17.911Z,3.23
2022-11-09T15:38:42.771Z,3.07
2022-11-09T15:41:48.144Z,2.67
2022-11-09T15:44:56.946Z,2.63
2022-11-09T15:48:02.311Z,3.13
2022-11-09T15:51:07.894Z,3.20
2022-11-09T15:54:14.703Z,3.30
2022-11-09T15:57:21.747Z,3.80
2022-11-09T16:00:27.900Z,3.67
2022-11-09T16:03:34.155Z,3.57
2022-11-09T16:06:45.282Z,3.33
2022-11-09T16:09:52.238Z,2.67
2022-11-09T16:12:57.913Z,3.03
2022-11-09T16:16:05.322Z,3.37
2022-11-09T16:19:14.148Z,3.70
2022-11-09T16:22:19.541Z,3.63
2022-11-09T16:25:25.054Z,3.80
2022-11-09T16:28:30.571Z,3.90
2022-11-09T16:31:52.600Z,4.10
2022-11-09T16:35:23.366Z,4.17
2022-11-09T16:38:23.894Z,4.17
2022-11-09T16:41:30.534Z,4.17
2022-11-09T16:44:39.186Z,4.80
2022-11-09T16:47:53.023Z,4.60
2022-11-09T16:50:58.636Z,4.23
2022-11-09T16:54:04.842Z,4.77
2022-11-09T16:57:10.308Z,7.23
2022-11-09T17:00:16.772Z,6.40
2022-11-09T17:03:22.328Z,5.10
2022-11-09T17:06:28.302Z,5.40
2022-11-09T17:09:34.449Z,5.60
2022-11-09T17:12:40.307Z,5.10
2022-11-09T17:15:48.866Z,4.97
2022-11-09T17:18:55.796Z,5.10
2022-11-09T17:22:01.502Z,5.07
2022-11-09T17:25:08.247Z,5.20
2022-11-09T17:28:13.685Z,4.60
2022-11-09T17:31:22.095Z,3.80
2022-11-09T17:34:27.506Z,4.33
2022-11-09T17:37:33.778Z,4.60
2022-11-09T17:40:39.193Z,4.47
2022-11-09T17:43:45.607Z,4.67
2022-11-09T17:46:51.445Z,4.37
2022-11-09T17:49:57.014Z,4.60
2022-11-09T17:53:02.496Z,5.10
2022-11-09T17:56:08.569Z,4.83
2022-11-09T17:59:13.997Z,4.77
2022-11-09T18:02:19.516Z,5.30
2022-11-09T18:05:25.304Z,6.03
2022-11-09T18:08:30.796Z,5.20
2022-11-09T18:11:36.422Z,5.20
2022-11-09T18:14:42.138Z,5.30
2022-11-09T18:17:48.013Z,5.17
2022-11-09T18:20:53.605Z,5.40
2022-11-09T18:23:59.728Z,5.30
2022-11-09T18:27:05.553Z,5.13
2022-11-09T18:30:11.470Z,5.03
2022-11-09T18:33:17.656Z,5.30
2022-11-09T18:36:23.523Z,5.40
2022-11-09T18:39:29.046Z,5.20
2022-11-09T18:42:34.853Z,5.20
2022-11-09T18:45:40.381Z,5.63
2022-11-09T18:48:51.547Z,5.30
2022-11-09T18:51:59.034Z,6.13
2022-11-09T18:55:05.038Z,7.63
2022-11-09T18:58:10.304Z,6.80
2022-11-09T19:01:16.194Z,5.90
2022-11-09T19:04:21.705Z,5.80
2022-11-09T19:07:28.758Z,6.00
2022-11-09T19:10:36.220Z,6.00
2022-11-09T19:13:42.160Z,5.80
2022-11-09T19:16:48.022Z,5.10
2022-11-09T19:19:53.976Z,5.43
2022-11-09T19:22:59.477Z,6.03
2022-11-09T19:26:05.215Z,6.03
2022-11-09T19:29:13.828Z,5.43
2022-11-09T19:32:19.289Z,6.43
2022-11-09T19:35:27.291Z,5.80
2022-11-09T19:38:35.300Z,6.10
2022-11-09T19:41:40.912Z,6.13
2022-11-09T19:44:46.491Z,6.30
2022-11-09T19:47:52.168Z,7.10
2022-11-09T19:50:58.299Z,6.80
2022-11-09T19:54:05.906Z,7.20
2022-11-09T19:57:11.476Z,6.37
2022-11-09T20:00:18.550Z,6.37
2022-11-09T20:03:24.424Z,6.30
2022-11-09T20:06:31.589Z,7.33
2022-11-09T20:09:37.619Z,8.77
2022-11-09T20:12:54.598Z,11.83
2022-11-09T20:16:05.393Z,11.30
2022-11-09T20:19:13.038Z,11.00
2022-11-09T20:22:18.579Z,10.70
2022-11-09T20:25:23.962Z,10.03
2022-11-09T20:28:29.392Z,9.07
2022-11-09T20:31:36.691Z,8.83
2022-11-09T20:34:42.658Z,6.80
2022-11-09T20:37:48.715Z,6.50
2022-11-09T20:41:02.453Z,4.80
2022-11-09T20:44:08.243Z,4.20
2022-11-09T20:47:14.005Z,3.30
2022-11-09T20:50:19.612Z,3.10
2022-11-09T20:53:25.155Z,3.03
2022-11-09T20:56:30.713Z,2.90
2022-11-09T20:59:36.708Z,2.57
2022-11-09T21:02:43.099Z,3.00
2022-11-09T21:05:52.401Z,2.50
2022-11-09T21:09:01.338Z,3.00
2022-11-09T21:12:21.807Z,2.90
2022-11-09T21:15:29.409Z,2.77
2022-11-09T21:18:37.102Z,2.67
2022-11-09T21:21:45.805Z,2.27
2022-11-09T21:25:10.050Z,2.60
2022-11-09T21:28:36.038Z,3.00
2022-11-09T21:31:41.775Z,2.73
2022-11-09T21:34:47.628Z,2.80
2022-11-09T21:37:56.802Z,2.40
2022-11-09T21:41:23.858Z,2.50
2022-11-09T21:44:32.075Z,2.80
2022-11-09T21:47:37.991Z,2.37
2022-11-09T21:50:43.669Z,2.20
2022-11-09T21:53:49.210Z,2.70
2022-11-09T21:56:55.144Z,2.70
2022-11-09T22:00:00.902Z,2.60
2022-11-09T22:03:06.372Z,2.50
2022-11-09T22:06:13.790Z,2.20
2022-11-09T22:09:19.188Z,2.60
2022-11-09T22:12:42.789Z,2.40
2022-11-09T22:16:06.596Z,2.23
2022-11-09T22:19:30.382Z,2.23
2022-11-09T22:22:36.298Z,2.43
2022-11-09T22:25:47.658Z,2.17
2022-11-09T22:28:53.364Z,2.43
2022-11-09T22:31:59.141Z,2.03
2022-11-09T22:35:04.943Z,2.37
2022-11-09T22:38:10.249Z,2.40
2022-11-09T22:41:16.368Z,2.03
2022-11-09T22:44:22.111Z,2.10
2022-11-09T22:47:27.568Z,2.43
2022-11-09T22:50:33.343Z,2.10
2022-11-09T22:53:38.897Z,2.30
2022-11-09T22:56:44.716Z,2.10
2022-11-09T22:59:50.268Z,2.40
2022-11-09T23:02:58.795Z,2.70
2022-11-09T23:06:13.343Z,2.20
2022-11-09T23:09:18.853Z,2.30
2022-11-09T23:12:24.527Z,2.33
2022-11-09T23:15:31.073Z,2.60
2022-11-09T23:18:55.704Z,2.80
2022-11-09T23:22:01.703Z,3.00
2022-11-09T23:25:27.509Z,2.70
2022-11-09T23:28:34.276Z,2.90
2022-11-09T23:31:40.050Z,3.33
2022-11-09T23:34:45.735Z,3.70
2022-11-09T23:37:58.051Z,3.23
2022-11-09T23:41:05.525Z,3.70
2022-11-09T23:44:11.412Z,3.50
2022-11-09T23:47:17.423Z,3.50
2022-11-09T23:50:22.713Z,3.57
2022-11-09T23:53:30.181Z,3.70
2022-11-09T23:56:35.602Z,3.87
2022-11-09T23:59:41.048Z,4.03
